Current Weather

Austin Mueller Municipal Ap

Austin Mueller Municipal Ap, Texas (KATT)

Report from: Monday, September 26, 2022 11:51 PM UTC
Current time: Tuesday, September 27, 2022 12:44 AM UTC

Nearby weather
Weather history
Weather forecast

Temperature30.6°C (87.1°F)
Heat index28.8°C (83.9°F)
Dew point6.7°C (44.1°F)
Winds 5 kts (2.6 m/s, 5.8 mph) North-Northeast (30°)
Visibility10 mi. (16.1 km)
Clouds Sky clear
Altimeter30.03 in.Hg (1017 mB)
Relative humidity22 %
Density altitude1,808 ft. (551 m)
Sea-level pressure101.5 kPa (1015 mB, 29.98 in.Hg)
Max temp last 6 hours33.9°C (93.0°F)
Min temp last 6 hours30.6°C (87.1°F)
Remarks Fully automated report
Automated weather observing station with precipitation discriminator
Pressure falling, then rising
Flight conditions Visual Meteorological Conditions
Raw dataKATT 262351Z AUTO 03005KT 10SM CLR 31/07 A3003 RMK AO2 SLP154 T03060067 10339 20306 55000
An unhandled exception has occurred. See browser dev tools for details. Reload 🗙